Time;durP1;ratioP1;P1;durP2;ratioP2;P2;SDS_P1;SDS_P2;PMS_P1;PMS_P2;Temp;Humidity;BMP_temperature;BMP_pressure;BME280_temperature;BME280_humidity;BME280_pressure;Samples;Min_cycle;Max_cycle;Signal;HPM_P1;HPM_P2
2021/07/30 00:00:01;;;;;;;5.93;3.73;;;;;;;18.94;57.11;96369.75;5066669;28;20187;-66
2021/07/30 00:02:26;;;;;;;4.50;3.27;;;;;;;19.07;56.78;96374.06;5071027;28;20870;-66
2021/07/30 00:04:52;;;;;;;4.40;4.00;;;;;;;19.09;56.82;96374.63;5071186;28;20277;-66
2021/07/30 00:07:18;;;;;;;7.20;3.80;;;;;;;19.20;56.63;96367.75;5071992;28;20244;-66
2021/07/30 00:09:43;;;;;;;3.70;3.30;;;;;;;19.73;55.35;96371.38;5064154;28;20217;-66
2021/07/30 00:12:09;;;;;;;4.10;3.70;;;;;;;20.04;54.14;96366.75;5062875;28;20633;-66
2021/07/30 00:14:34;;;;;;;9.10;3.90;;;;;;;20.04;55.07;96369.41;5063027;28;20190;-66
2021/07/30 00:17:00;;;;;;;4.40;4.00;;;;;;;20.05;55.67;96363.06;5072829;28;20236;-67
2021/07/30 00:19:25;;;;;;;6.53;3.63;;;;;;;20.10;54.71;96373.81;5072170;28;20209;-66
2021/07/30 00:21:51;;;;;;;4.37;3.77;;;;;;;20.15;55.62;96367.00;5071091;28;20293;-67
2021/07/30 00:24:17;;;;;;;5.57;3.30;;;;;;;20.82;52.38;96369.13;5070821;28;20256;-67
2021/07/30 00:26:43;;;;;;;4.20;2.90;;;;;;;20.90;52.32;96367.13;5071153;28;20420;-66
2021/07/30 00:29:09;;;;;;;3.83;3.00;;;;;;;20.78;53.13;96359.19;5066195;28;20217;-67
2021/07/30 00:31:34;;;;;;;13.50;4.90;;;;;;;20.31;52.91;96354.81;5071235;28;20413;-66
2021/07/30 00:34:00;;;;;;;5.37;4.00;;;;;;;20.07;53.50;96360.97;5070757;28;20202;-66
2021/07/30 00:36:26;;;;;;;12.23;4.13;;;;;;;20.02;53.69;96355.56;5052804;28;20186;-66
2021/07/30 00:38:52;;;;;;;6.40;4.20;;;;;;;19.84;54.04;96347.69;5068366;28;20306;-66
2021/07/30 00:41:17;;;;;;;4.60;3.90;;;;;;;19.56;54.52;96351.84;5068774;28;20301;-66
2021/07/30 00:43:43;;;;;;;5.90;3.57;;;;;;;19.26;55.49;96352.75;5069860;28;20198;-67
2021/07/30 00:46:09;;;;;;;6.90;4.20;;;;;;;19.06;56.28;96350.41;5070995;28;20645;-65
2021/07/30 00:48:34;;;;;;;6.50;3.90;;;;;;;18.77;57.53;96358.94;5070793;28;20178;-67
2021/07/30 00:51:00;;;;;;;3.90;3.60;;;;;;;19.14;58.67;96366.81;5070958;28;20259;-66
2021/07/30 00:53:26;;;;;;;4.53;3.70;;;;;;;19.30;55.12;96365.34;5068427;28;20206;-64
2021/07/30 00:55:53;;;;;;;4.70;3.57;;;;;;;19.51;56.14;96362.34;5070483;28;20719;-66
2021/07/30 00:58:19;;;;;;;5.07;3.57;;;;;;;20.02;54.35;96358.22;5065895;28;20437;-65
2021/07/30 01:00:44;;;;;;;5.67;3.83;;;;;;;20.26;52.44;96344.88;5070217;28;20463;-66
2021/07/30 01:03:10;;;;;;;3.80;3.50;;;;;;;20.29;52.07;96352.38;5069119;28;20433;-65
2021/07/30 01:05:36;;;;;;;4.93;4.07;;;;;;;19.47;54.67;96351.38;5070895;28;20182;-65
2021/07/30 01:08:03;;;;;;;3.90;3.60;;;;;;;19.01;58.56;96343.91;5067918;28;20182;-66
2021/07/30 01:10:29;;;;;;;5.43;3.67;;;;;;;19.99;55.06;96342.72;5070584;28;20185;-64
2021/07/30 01:12:55;;;;;;;4.03;3.63;;;;;;;20.53;51.76;96339.81;5070054;28;20505;-67
2021/07/30 01:15:21;;;;;;;3.80;3.37;;;;;;;20.73;50.56;96338.56;5070613;28;20420;-67
2021/07/30 01:17:47;;;;;;;3.97;3.10;;;;;;;20.22;51.97;96343.72;5070596;28;20447;-66
2021/07/30 01:20:13;;;;;;;3.77;3.17;;;;;;;19.19;54.97;96351.00;5061093;28;20457;-66
2021/07/30 01:22:59;;;;;;;4.60;3.30;;;;;;;19.02;56.06;96355.34;5070892;28;20201;-66
2021/07/30 01:25:27;;;;;;;5.50;4.00;;;;;;;19.57;55.98;96348.13;5070890;28;20424;-66
2021/07/30 01:27:53;;;;;;;3.93;3.37;;;;;;;19.93;52.49;96355.09;5068666;28;20442;-66
2021/07/30 01:30:20;;;;;;;5.90;3.50;;;;;;;20.09;53.54;96348.25;5067984;28;21134;-66
2021/07/30 01:32:46;;;;;;;4.93;3.53;;;;;;;20.33;51.50;96350.06;5070779;28;20452;-66
2021/07/30 01:35:12;;;;;;;8.53;3.63;;;;;;;20.57;53.50;96348.13;5070105;28;20424;-67
2021/07/30 01:37:37;;;;;;;3.47;2.80;;;;;;;21.00;51.82;96335.34;5070227;28;20645;-67
2021/07/30 01:40:04;;;;;;;3.67;3.37;;;;;;;20.84;52.88;96342.25;5070099;28;20214;-67
2021/07/30 01:42:30;;;;;;;7.20;3.47;;;;;;;21.15;50.78;96338.28;5070266;28;20299;-66
2021/07/30 01:44:55;;;;;;;4.80;3.67;;;;;;;21.00;50.74;96344.16;5069986;28;20509;-67
2021/07/30 01:47:21;;;;;;;3.50;3.20;;;;;;;20.65;52.24;96345.09;5061731;28;20198;-65
2021/07/30 01:49:48;;;;;;;5.10;3.43;;;;;;;20.08;51.55;96349.28;5063795;28;20699;-65
2021/07/30 01:52:13;;;;;;;3.87;3.47;;;;;;;20.30;53.54;96342.56;5071301;28;20217;-66
2021/07/30 01:54:39;;;;;;;4.97;3.60;;;;;;;20.23;51.06;96343.47;5065541;28;20931;-65
2021/07/30 01:57:05;;;;;;;5.33;3.67;;;;;;;20.20;52.55;96345.81;5073522;28;20277;-66
2021/07/30 01:59:31;;;;;;;4.17;3.77;;;;;;;20.33;53.31;96337.56;5069315;28;20408;-67
2021/07/30 02:01:57;;;;;;;5.43;3.40;;;;;;;20.89;52.01;96339.69;5074254;28;20460;-67
2021/07/30 02:04:22;;;;;;;10.17;3.27;;;;;;;20.99;51.06;96339.03;5073387;28;20232;-66
2021/07/30 02:06:48;;;;;;;3.17;2.87;;;;;;;21.44;50.03;96330.22;5073674;28;20543;-67
2021/07/30 02:09:14;;;;;;;4.10;3.00;;;;;;;21.46;47.64;96332.63;5073969;28;20190;-66
2021/07/30 02:11:43;;;;;;;4.80;3.17;;;;;;;21.25;50.79;96334.16;5073720;28;20170;-67
2021/07/30 02:14:15;;;;;;;3.23;2.93;;;;;;;21.94;48.83;96328.53;5072262;28;20626;-66
2021/07/30 02:16:45;;;;;;;6.37;3.00;;;;;;;21.43;48.73;96333.09;5067213;28;20857;-65
2021/07/30 02:19:12;;;;;;;3.20;2.90;;;;;;;20.78;51.51;96343.22;5073551;28;20847;-66
2021/07/30 02:21:37;;;;;;;3.07;2.77;;;;;;;21.24;50.04;96330.69;5073274;28;20472;-66
2021/07/30 02:24:04;;;;;;;4.30;3.17;;;;;;;21.77;48.13;96335.78;5073149;28;20503;-67
2021/07/30 02:26:29;;;;;;;5.73;2.93;;;;;;;21.85;48.18;96331.88;5073306;28;20174;-67
2021/07/30 02:28:56;;;;;;;4.20;3.20;;;;;;;21.92;47.76;96333.31;5069416;28;20479;-67
2021/07/30 02:31:22;;;;;;;3.73;3.20;;;;;;;21.61;47.83;96326.75;5073022;28;20599;-67
2021/07/30 02:33:48;;;;;;;3.70;3.13;;;;;;;20.59;49.20;96323.94;5056258;28;20444;-66
2021/07/30 02:36:13;;;;;;;3.97;3.17;;;;;;;20.40;52.89;96327.59;5074583;28;20432;-66
2021/07/30 02:38:39;;;;;;;4.73;3.40;;;;;;;20.30;51.99;96322.06;5074314;28;20194;-66
2021/07/30 02:41:04;;;;;;;3.90;2.93;;;;;;;20.42;51.49;96319.38;5071740;28;20232;-66
2021/07/30 02:43:30;;;;;;;6.10;3.70;;;;;;;20.36;52.14;96320.31;5073390;28;20929;-67
2021/07/30 02:45:55;;;;;;;6.63;3.60;;;;;;;20.53;49.64;96317.72;5073140;28;20227;-68
2021/07/30 02:48:21;;;;;;;5.63;3.13;;;;;;;21.00;49.93;96320.19;5071071;28;20269;-66
2021/07/30 02:50:50;;;;;;;5.40;3.53;;;;;;;20.51;49.94;96319.81;5070321;28;20267;-66
2021/07/30 02:53:15;;;;;;;6.40;3.50;;;;;;;19.84;52.45;96316.59;5072108;28;20202;-66
2021/07/30 02:55:41;;;;;;;4.10;3.70;;;;;;;19.55;52.58;96310.34;5070972;28;20440;-67
2021/07/30 02:58:07;;;;;;;7.47;3.60;;;;;;;19.74;55.08;96314.53;5068349;28;20187;-66
2021/07/30 03:00:32;;;;;;;7.30;3.73;;;;;;;19.47;53.19;96309.69;5072863;28;20202;-66
2021/07/30 03:02:58;;;;;;;5.03;4.10;;;;;;;19.67;54.80;96311.16;5054870;28;20590;-66
2021/07/30 03:05:23;;;;;;;6.97;4.17;;;;;;;19.86;53.54;96305.72;5072090;28;20602;-65
2021/07/30 03:07:49;;;;;;;6.97;3.80;;;;;;;19.76;52.59;96306.31;5072559;28;20193;-67
2021/07/30 03:10:15;;;;;;;6.80;4.50;;;;;;;19.78;54.11;96305.03;5072011;28;20614;-66
2021/07/30 03:12:40;;;;;;;4.80;4.30;;;;;;;19.95;52.52;96302.50;5072611;28;20234;-65
2021/07/30 03:15:06;;;;;;;4.60;4.00;;;;;;;19.47;53.00;96309.69;5072646;28;20186;-65
2021/07/30 03:17:32;;;;;;;9.83;3.37;;;;;;;19.01;54.74;96308.59;5066254;28;20182;-66
2021/07/30 03:19:57;;;;;;;5.30;4.77;;;;;;;18.77;55.39;96305.88;5072278;28;20630;-65
2021/07/30 03:22:23;;;;;;;5.80;4.27;;;;;;;18.91;55.94;96297.69;5063782;28;20198;-65
2021/07/30 03:24:48;;;;;;;5.50;4.20;;;;;;;18.84;56.92;96295.94;5070308;28;20174;-66
2021/07/30 03:27:14;;;;;;;4.80;4.40;;;;;;;18.98;54.96;96295.78;5071978;28;20186;-66
2021/07/30 03:29:39;;;;;;;4.47;3.70;;;;;;;19.16;55.69;96298.31;5059289;28;20181;-66
2021/07/30 03:32:05;;;;;;;5.87;3.93;;;;;;;19.41;56.23;96292.00;5072095;28;20185;-65
2021/07/30 03:34:33;;;;;;;4.93;3.67;;;;;;;19.32;56.34;96285.41;5071466;28;20181;-65
2021/07/30 03:37:00;;;;;;;5.93;4.17;;;;;;;19.85;54.49;96288.16;5069833;28;20441;-66
2021/07/30 03:39:26;;;;;;;5.17;4.20;;;;;;;19.99;52.75;96291.38;5070741;28;20867;-64
2021/07/30 03:41:52;;;;;;;5.53;4.07;;;;;;;19.64;55.59;96293.84;5071820;28;20514;-66
2021/07/30 03:44:17;;;;;;;6.07;4.00;;;;;;;20.15;53.58;96287.19;5071123;28;20440;-66
2021/07/30 03:46:43;;;;;;;5.57;3.70;;;;;;;20.72;51.89;96281.88;5049648;28;20312;-66
2021/07/30 03:49:08;;;;;;;4.50;4.00;;;;;;;21.21;50.36;96272.56;5050886;28;20179;-65
2021/07/30 03:51:34;;;;;;;6.23;3.60;;;;;;;21.05;51.27;96278.69;5051989;28;20251;-66
2021/07/30 03:53:59;;;;;;;5.87;3.63;;;;;;;21.27;49.92;96268.09;5051833;28;20816;-66
2021/07/30 03:56:25;;;;;;;4.17;3.47;;;;;;;21.35;49.95;96277.56;5062303;28;20188;-65
2021/07/30 03:58:51;;;;;;;3.70;3.40;;;;;;;21.23;48.39;96273.13;5064298;28;20190;-66
2021/07/30 04:01:16;;;;;;;5.00;4.50;;;;;;;20.77;49.91;96272.41;5051255;28;20275;-66
2021/07/30 04:03:45;;;;;;;5.00;3.83;;;;;;;20.32;53.10;96274.75;5050627;28;20190;-67
2021/07/30 04:06:11;;;;;;;3.47;3.17;;;;;;;20.79;51.53;96267.66;5050483;28;20248;-66
2021/07/30 04:08:37;;;;;;;5.67;4.53;;;;;;;21.06;49.35;96269.66;5051764;28;20500;-66
2021/07/30 04:11:03;;;;;;;7.10;4.37;;;;;;;20.71;50.16;96274.94;5051472;28;20876;-65
2021/07/30 04:13:30;;;;;;;4.40;4.00;;;;;;;21.28;50.01;96275.88;5059256;28;20195;-66
2021/07/30 04:16:03;;;;;;;6.57;3.67;;;;;;;21.84;47.65;96266.28;5051746;28;20421;-66
2021/07/30 04:18:29;;;;;;;4.43;4.00;;;;;;;21.75;48.51;96273.88;5043588;28;20424;-65
2021/07/30 04:20:54;;;;;;;5.10;4.30;;;;;;;21.82;48.12;96277.16;5061384;28;21093;-65
2021/07/30 04:23:20;;;;;;;7.07;4.60;;;;;;;21.81;47.88;96272.09;5050923;28;20214;-65
2021/07/30 04:25:45;;;;;;;3.97;3.57;;;;;;;21.59;48.59;96278.19;5057137;28;20212;-67
2021/07/30 04:28:11;;;;;;;4.43;4.00;;;;;;;21.68;49.30;96278.56;5061246;28;20183;-67
2021/07/30 04:30:37;;;;;;;5.00;3.87;;;;;;;21.83;48.94;96278.78;5050996;28;20515;-66
2021/07/30 04:33:02;;;;;;;6.63;4.70;;;;;;;21.81;48.60;96275.56;5050514;28;20214;-67
2021/07/30 04:35:28;;;;;;;7.10;3.83;;;;;;;21.82;48.62;96284.38;5054250;28;20194;-67
2021/07/30 04:37:56;;;;;;;4.50;4.10;;;;;;;21.68;49.29;96281.22;5061789;28;20194;-65
2021/07/30 04:40:23;;;;;;;5.23;3.87;;;;;;;21.70;49.06;96284.47;5042638;28;20195;-65
2021/07/30 04:42:48;;;;;;;11.70;4.30;;;;;;;21.85;49.08;96283.88;5050400;28;20801;-67
2021/07/30 04:45:14;;;;;;;9.93;3.77;;;;;;;21.81;48.95;96285.41;5050459;28;20422;-67
2021/07/30 04:47:40;;;;;;;4.23;3.70;;;;;;;21.89;48.53;96285.81;5044944;28;20193;-66
2021/07/30 04:50:06;;;;;;;5.30;4.37;;;;;;;22.01;48.83;96284.88;5053335;28;20481;-66
2021/07/30 04:52:31;;;;;;;6.00;4.27;;;;;;;21.94;48.63;96279.72;5050386;28;20573;-66
2021/07/30 04:54:57;;;;;;;5.27;4.47;;;;;;;21.85;49.01;96282.00;5050399;28;20501;-67
2021/07/30 04:57:22;;;;;;;5.97;4.60;;;;;;;21.66;48.59;96284.16;5050713;28;20188;-66
2021/07/30 04:59:48;;;;;;;5.23;4.47;;;;;;;21.81;48.81;96283.53;5045022;28;20175;-67
2021/07/30 05:02:13;;;;;;;4.97;4.40;;;;;;;21.82;49.31;96282.50;5050135;28;20198;-67
2021/07/30 05:04:39;;;;;;;7.80;4.87;;;;;;;21.86;49.00;96288.16;5050657;28;20190;-69
2021/07/30 05:07:05;;;;;;;4.70;4.20;;;;;;;21.95;48.20;96270.69;5049068;28;20190;-66
2021/07/30 05:09:31;;;;;;;5.77;4.10;;;;;;;22.03;49.00;96277.44;5053963;28;20293;-66
2021/07/30 05:11:56;;;;;;;5.60;4.03;;;;;;;21.99;48.36;96282.44;5054823;28;20190;-66
2021/07/30 05:14:22;;;;;;;4.50;3.70;;;;;;;22.15;48.43;96272.78;5058421;28;20241;-66
2021/07/30 05:16:47;;;;;;;4.43;4.03;;;;;;;22.16;48.35;96279.72;5045852;28;20211;-68
2021/07/30 05:19:13;;;;;;;4.90;3.90;;;;;;;22.40;47.77;96271.44;5048365;28;20650;-66
2021/07/30 05:21:39;;;;;;;5.57;3.83;;;;;;;22.52;47.65;96271.31;5050892;28;20206;-65
2021/07/30 05:24:04;;;;;;;6.27;4.17;;;;;;;22.38;47.03;96266.34;5053088;28;20206;-66
2021/07/30 05:26:30;;;;;;;3.83;3.40;;;;;;;22.37;48.28;96267.41;5054167;28;20183;-65
2021/07/30 05:28:56;;;;;;;8.10;3.83;;;;;;;22.58;47.82;96259.66;5037228;28;20670;-65
2021/07/30 05:31:22;;;;;;;5.90;4.10;;;;;;;22.57;47.75;96268.72;5054122;28;20183;-66
2021/07/30 05:33:48;;;;;;;4.53;4.13;;;;;;;22.65;47.42;96267.44;5052741;28;20233;-67
2021/07/30 05:36:18;;;;;;;6.57;4.03;;;;;;;22.43;48.08;96260.28;5054369;28;20796;-69
2021/07/30 05:38:44;;;;;;;8.30;4.87;;;;;;;22.24;47.92;96276.63;5054391;28;20198;-69
2021/07/30 05:41:10;;;;;;;7.20;4.63;;;;;;;21.99;48.82;96277.09;5045251;28;20458;-70
2021/07/30 05:43:38;;;;;;;10.03;4.90;;;;;;;21.41;50.43;96281.91;5054760;28;20494;-68
2021/07/30 05:46:04;;;;;;;5.33;4.80;;;;;;;21.10;51.57;96284.09;5053651;28;20985;-70
2021/07/30 05:48:29;;;;;;;5.80;5.30;;;;;;;21.08;51.89;96273.72;5054351;28;20508;-69
2021/07/30 05:50:55;;;;;;;5.30;4.53;;;;;;;21.20;51.88;96278.13;5059560;28;20175;-68
2021/07/30 05:53:20;;;;;;;6.00;4.80;;;;;;;21.14;52.57;96282.59;5053632;28;20247;-69
2021/07/30 05:55:46;;;;;;;6.40;5.23;;;;;;;21.29;51.96;96280.16;5046248;28;20267;-68
2021/07/30 05:58:12;;;;;;;9.23;4.97;;;;;;;21.49;51.77;96279.63;5069965;28;20629;-69
2021/07/30 06:00:37;;;;;;;12.10;6.23;;;;;;;21.46;51.32;96280.13;5073256;28;20213;-69
2021/07/30 06:03:03;;;;;;;5.80;5.20;;;;;;;21.68;51.24;96276.72;5073732;28;20237;-70
2021/07/30 06:05:29;;;;;;;6.40;4.73;;;;;;;21.99;50.46;96269.09;5073597;28;20231;-68
2021/07/30 06:07:58;;;;;;;4.93;4.43;;;;;;;22.23;50.12;96261.66;5073178;28;20551;-71
2021/07/30 06:10:24;;;;;;;8.63;5.53;;;;;;;22.38;49.41;96269.00;5073250;28;20673;-69
2021/07/30 06:12:50;;;;;;;7.30;4.43;;;;;;;22.30;49.60;96264.13;5072909;28;20473;-69
2021/07/30 06:15:15;;;;;;;9.10;5.80;;;;;;;22.07;50.31;96263.34;5056240;28;20439;-69
2021/07/30 06:17:41;;;;;;;8.53;4.83;;;;;;;22.37;49.61;96258.59;5073246;28;20614;-70
2021/07/30 06:20:08;;;;;;;8.77;4.63;;;;;;;22.70;48.72;96254.13;5057470;28;20182;-68
2021/07/30 06:22:36;;;;;;;5.40;4.80;;;;;;;22.81;48.00;96255.84;5057111;28;20202;-69
2021/07/30 06:25:03;;;;;;;5.90;4.90;;;;;;;22.83;48.27;96251.03;5048096;28;20442;-71
2021/07/30 06:27:29;;;;;;;5.00;4.50;;;;;;;23.04;47.64;96256.56;5047255;28;20932;-68
2021/07/30 06:29:54;;;;;;;8.73;5.00;;;;;;;22.92;47.81;96255.94;5048600;28;20485;-70
2021/07/30 06:32:20;;;;;;;11.40;4.47;;;;;;;23.04;47.31;96256.56;5056766;28;20183;-69
2021/07/30 06:34:46;;;;;;;6.20;4.30;;;;;;;23.09;47.43;96253.91;5044522;28;20226;-70
2021/07/30 06:37:11;;;;;;;7.70;4.40;;;;;;;23.36;46.84;96255.75;5060994;28;20269;-69
2021/07/30 06:39:39;;;;;;;6.33;4.40;;;;;;;23.34;46.87;96254.41;5072995;28;20197;-68
2021/07/30 06:42:04;;;;;;;9.20;4.80;;;;;;;23.54;46.42;96245.69;5070691;28;20274;-69
2021/07/30 06:44:30;;;;;;;5.00;4.37;;;;;;;23.53;46.25;96249.44;5071837;28;20948;-69
2021/07/30 06:46:55;;;;;;;5.93;4.77;;;;;;;23.53;46.54;96246.75;5073503;28;20315;-69
2021/07/30 06:49:21;;;;;;;6.43;4.83;;;;;;;23.65;46.02;96250.03;5069432;28;20274;-69
2021/07/30 06:51:47;;;;;;;5.93;4.20;;;;;;;23.78;46.45;96252.25;5060709;28;20182;-71
2021/07/30 06:54:12;;;;;;;6.20;4.10;;;;;;;24.13;45.36;96247.31;5069337;28;20297;-68
2021/07/30 06:56:38;;;;;;;5.27;4.43;;;;;;;24.35;44.39;96241.75;5045809;28;20195;-70
2021/07/30 06:59:03;;;;;;;6.00;4.17;;;;;;;24.59;43.79;96251.19;5048617;28;20195;-70
2021/07/30 07:01:29;;;;;;;6.80;4.27;;;;;;;24.77;43.58;96245.31;5071524;28;20240;-69
2021/07/30 07:03:55;;;;;;;5.63;4.23;;;;;;;24.67;43.38;96240.75;5071002;28;20208;-69
2021/07/30 07:06:20;;;;;;;8.27;4.40;;;;;;;24.44;43.97;96249.28;5054534;28;20274;-68
2021/07/30 07:08:46;;;;;;;5.50;5.00;;;;;;;24.54;43.33;96242.06;5073628;28;20248;-69
2021/07/30 07:11:11;;;;;;;5.47;4.90;;;;;;;24.57;42.69;96235.38;5080839;28;20186;-69
2021/07/30 07:13:41;;;;;;;6.57;4.50;;;;;;;24.74;42.77;96240.50;5052795;28;20458;-69
2021/07/30 07:16:07;;;;;;;5.60;4.70;;;;;;;24.44;43.69;96236.69;5085720;28;20179;-69
2021/07/30 07:18:32;;;;;;;5.23;4.47;;;;;;;24.87;43.49;96233.81;5087064;28;20427;-70
2021/07/30 07:20:58;;;;;;;6.17;4.80;;;;;;;25.04;43.18;96243.47;5073318;28;20194;-68
2021/07/30 07:23:24;;;;;;;5.07;4.57;;;;;;;24.54;44.34;96241.25;5071340;28;20198;-69
2021/07/30 07:25:50;;;;;;;6.10;4.80;;;;;;;24.41;44.58;96237.22;5059780;28;20180;-69
2021/07/30 07:28:15;;;;;;;6.17;4.50;;;;;;;24.83;44.21;96230.88;5069131;28;20319;-68
2021/07/30 07:30:41;;;;;;;6.30;4.30;;;;;;;25.02;43.77;96229.53;5072092;28;20171;-70
2021/07/30 07:33:07;;;;;;;4.80;4.40;;;;;;;25.13;43.59;96231.13;5070726;28;20618;-70
2021/07/30 07:35:32;;;;;;;6.13;4.70;;;;;;;25.03;43.93;96229.25;5071452;28;20421;-70
2021/07/30 07:38:06;;;;;;;5.50;5.00;;;;;;;25.61;42.46;96228.91;5071772;28;20389;-69
2021/07/30 07:40:32;;;;;;;8.20;4.40;;;;;;;25.82;42.50;96231.53;5037294;28;20692;-68
2021/07/30 07:42:59;;;;;;;5.20;4.70;;;;;;;25.58;42.88;96229.44;5070293;28;20497;-70
2021/07/30 07:45:25;;;;;;;8.17;4.80;;;;;;;25.57;42.80;96230.53;5071497;28;20894;-69
2021/07/30 07:47:51;;;;;;;8.53;5.40;;;;;;;26.09;41.99;96221.47;5070262;28;20425;-69
2021/07/30 07:50:17;;;;;;;6.17;4.60;;;;;;;26.26;42.10;96223.81;5071515;28;20792;-68
2021/07/30 07:52:43;;;;;;;6.07;4.47;;;;;;;26.60;41.16;96225.75;5070397;28;20440;-69
2021/07/30 07:55:08;;;;;;;6.07;4.80;;;;;;;26.35;42.27;96227.53;5069645;28;20182;-69
2021/07/30 07:57:34;;;;;;;7.03;4.57;;;;;;;26.63;41.73;96228.69;5057016;28;20209;-69
2021/07/30 08:00:00;;;;;;;10.70;5.00;;;;;;;26.63;41.92;96230.56;5071707;28;20611;-69
2021/07/30 08:02:25;;;;;;;9.63;4.23;;;;;;;26.75;41.98;96231.00;5069315;28;20208;-67
2021/07/30 08:04:51;;;;;;;8.33;5.13;;;;;;;26.91;41.16;96220.19;5071139;28;20280;-69
2021/07/30 08:07:17;;;;;;;6.77;4.83;;;;;;;27.12;40.97;96223.50;5070941;28;20265;-69
2021/07/30 08:09:44;;;;;;;8.90;4.60;;;;;;;27.33;40.32;96221.41;5070370;28;20227;-69
2021/07/30 08:12:10;;;;;;;6.73;4.67;;;;;;;27.52;39.75;96220.69;5070586;28;20438;-69
2021/07/30 08:14:37;;;;;;;6.17;5.07;;;;;;;27.16;40.54;96219.13;5070916;28;20416;-68
2021/07/30 08:17:03;;;;;;;6.70;5.10;;;;;;;26.41;41.11;96220.22;5070900;28;20665;-68
2021/07/30 08:19:31;;;;;;;4.73;4.03;;;;;;;25.99;41.71;96214.25;5067340;28;20441;-68
2021/07/30 08:21:57;;;;;;;5.53;4.40;;;;;;;26.33;41.08;96224.34;5070201;28;20190;-71
2021/07/30 08:24:23;;;;;;;4.60;4.20;;;;;;;26.28;40.52;96227.81;5069828;28;20437;-68
2021/07/30 08:26:48;;;;;;;11.40;4.30;;;;;;;26.87;39.75;96216.44;5055647;28;20186;-68
2021/07/30 08:29:16;;;;;;;6.10;4.67;;;;;;;26.66;39.91;96219.28;5053749;28;20266;-70
2021/07/30 08:31:41;;;;;;;7.23;4.23;;;;;;;26.57;40.02;96221.75;5070340;28;20180;-69
2021/07/30 08:34:07;;;;;;;5.63;5.00;;;;;;;26.76;39.66;96221.09;5054001;28;20437;-68
2021/07/30 08:36:32;;;;;;;5.83;4.40;;;;;;;26.93;39.01;96218.81;5070546;28;20182;-68
2021/07/30 08:38:58;;;;;;;4.70;3.90;;;;;;;26.81;38.91;96213.00;5070255;28;20197;-69
2021/07/30 08:41:24;;;;;;;4.70;4.30;;;;;;;27.51;37.86;96219.09;5070336;28;20222;-69
2021/07/30 08:43:54;;;;;;;6.33;4.70;;;;;;;27.50;37.90;96217.50;5068802;28;20568;-66
2021/07/30 08:46:24;;;;;;;4.23;3.87;;;;;;;26.91;38.82;96220.97;5069969;28;20190;-69
2021/07/30 08:48:50;;;;;;;7.23;4.77;;;;;;;26.85;39.01;96210.53;5069936;28;20425;-69
2021/07/30 08:51:18;;;;;;;5.83;4.47;;;;;;;27.19;38.59;96215.88;5070329;28;20408;-68
2021/07/30 08:53:46;;;;;;;5.03;4.33;;;;;;;27.09;38.76;96214.09;5070334;28;20448;-67
2021/07/30 08:56:12;;;;;;;5.33;4.23;;;;;;;27.12;38.66;96210.84;5055035;28;20450;-69
2021/07/30 08:58:38;;;;;;;6.13;4.40;;;;;;;27.87;37.82;96214.13;5058750;28;20418;-67
2021/07/30 09:01:03;;;;;;;5.80;4.30;;;;;;;27.59;38.19;96213.09;5047429;28;20787;-69
2021/07/30 09:03:40;;;;;;;4.87;4.43;;;;;;;27.26;38.75;96218.25;5068853;28;20198;-68
2021/07/30 09:06:12;;;;;;;4.73;4.27;;;;;;;27.72;37.92;96214.28;5070200;28;20190;-70
2021/07/30 09:08:37;;;;;;;7.13;4.87;;;;;;;27.83;37.88;96207.69;5072176;28;20572;-70
2021/07/30 09:11:03;;;;;;;7.83;5.60;;;;;;;28.20;37.62;96205.38;5073461;28;20838;-69
2021/07/30 09:13:32;;;;;;;5.23;4.60;;;;;;;28.51;36.92;96205.72;5045705;28;20244;-69
2021/07/30 09:16:06;;;;;;;10.53;4.80;;;;;;;28.98;36.00;96202.31;5062193;28;20255;-69
2021/07/30 09:18:34;;;;;;;5.60;4.57;;;;;;;28.59;36.51;96198.06;5069811;28;20511;-68
2021/07/30 09:21:15;;;;;;;7.97;4.80;;;;;;;27.81;37.71;96201.78;5070532;28;20779;-69
2021/07/30 09:24:03;;;;;;;6.77;5.10;;;;;;;27.05;38.85;96194.25;5068925;28;21032;-68
2021/07/30 09:26:29;;;;;;;6.10;4.63;;;;;;;28.17;37.75;96195.97;5054578;28;21041;-67
2021/07/30 09:28:56;;;;;;;5.90;5.30;;;;;;;27.87;38.30;96208.72;5071641;28;20425;-67
2021/07/30 09:31:46;;;;;;;6.33;4.60;;;;;;;27.96;38.52;96208.91;5071662;28;20432;-69
2021/07/30 09:34:13;;;;;;;6.00;5.37;;;;;;;28.47;37.80;96202.00;5067539;28;20539;-67
2021/07/30 09:36:56;;;;;;;5.70;5.07;;;;;;;28.69;37.32;96200.59;5070723;28;20432;-70
2021/07/30 09:39:41;;;;;;;5.80;4.90;;;;;;;28.14;38.54;96195.75;5070279;28;20447;-69
2021/07/30 09:42:10;;;;;;;6.23;5.33;;;;;;;28.66;37.78;96196.59;5067933;28;20535;-69
2021/07/30 09:44:45;;;;;;;7.10;5.83;;;;;;;29.42;35.98;96190.22;5055979;28;20424;-71
2021/07/30 09:47:14;;;;;;;5.00;4.50;;;;;;;28.80;36.92;96179.72;5070142;28;20835;-69
2021/07/30 09:49:45;;;;;;;5.23;4.77;;;;;;;28.41;37.40;96178.97;5071151;28;20820;-68
2021/07/30 09:52:18;;;;;;;5.10;4.57;;;;;;;28.01;38.74;96187.28;5071926;28;20420;-68
2021/07/30 09:55:10;;;;;;;5.23;4.73;;;;;;;28.08;38.55;96169.97;5070939;28;20445;-69
2021/07/30 09:57:37;;;;;;;6.50;5.33;;;;;;;28.03;38.79;96166.25;5051548;28;20928;-68
2021/07/30 10:00:05;;;;;;;5.80;5.20;;;;;;;27.80;39.00;96159.81;5071014;28;20412;-68
2021/07/30 10:02:32;;;;;;;5.53;4.70;;;;;;;27.77;39.50;96167.69;5069759;28;20946;-68
2021/07/30 10:04:58;;;;;;;7.03;4.53;;;;;;;29.28;36.58;96154.34;5069574;28;20421;-69
2021/07/30 10:07:25;;;;;;;7.13;5.20;;;;;;;29.23;37.05;96154.41;5069466;28;20413;-68
2021/07/30 10:12:52;;;;;;;7.23;6.50;;;;;;;30.39;35.04;96147.97;5042564;28;20479;-69
2021/07/30 10:15:18;;;;;;;6.27;5.67;;;;;;;29.58;36.33;96157.53;5064366;28;20506;-69
2021/07/30 10:17:45;;;;;;;7.50;5.30;;;;;;;30.45;34.72;96151.34;5073863;28;20432;-69
2021/07/30 10:20:12;;;;;;;6.13;5.53;;;;;;;30.50;34.29;96141.22;5075964;28;20225;-68
2021/07/30 10:22:45;;;;;;;6.27;5.67;;;;;;;30.45;35.07;96141.38;5078256;28;20497;-70
2021/07/30 10:25:23;;;;;;;6.40;5.40;;;;;;;30.64;34.34;96148.50;5054321;28;20825;-70
2021/07/30 10:27:55;;;;;;;5.27;4.70;;;;;;;30.73;33.78;96146.66;5064175;28;20413;-69
2021/07/30 10:30:21;;;;;;;10.07;5.17;;;;;;;30.73;34.38;96152.06;5074052;28;20432;-69
2021/07/30 10:33:04;;;;;;;5.50;5.00;;;;;;;31.10;33.89;96149.22;5073807;28;20452;-70
2021/07/30 10:35:30;;;;;;;6.17;5.57;;;;;;;29.19;37.04;96143.44;5056671;28;20218;-67
2021/07/30 10:38:19;;;;;;;6.83;5.40;;;;;;;29.27;37.14;96137.34;5065201;28;20463;-68
2021/07/30 10:41:05;;;;;;;12.17;5.50;;;;;;;29.10;37.34;96134.44;5072119;28;20213;-70
2021/07/30 10:43:33;;;;;;;8.37;5.13;;;;;;;29.86;35.89;96141.31;5072312;28;20478;-67
2021/07/30 10:46:08;;;;;;;7.53;5.47;;;;;;;29.95;35.41;96141.44;5073395;28;20829;-69
2021/07/30 10:48:38;;;;;;;5.87;5.37;;;;;;;29.52;36.11;96137.94;5073742;28;20436;-68
2021/07/30 10:51:25;;;;;;;5.13;4.63;;;;;;;30.29;35.02;96135.53;5072630;28;20417;-68
2021/07/30 10:54:00;;;;;;;5.50;5.00;;;;;;;29.24;37.26;96123.66;5073018;28;20444;-69
2021/07/30 10:56:32;;;;;;;5.33;4.83;;;;;;;29.60;36.32;96117.56;5055920;28;20501;-70
2021/07/30 10:59:00;;;;;;;6.53;5.33;;;;;;;29.98;35.61;96121.94;5073428;28;20432;-68
2021/07/30 11:01:29;;;;;;;7.93;5.60;;;;;;;30.90;34.23;96118.91;5071900;28;20452;-68
2021/07/30 11:03:56;;;;;;;6.80;4.93;;;;;;;31.27;33.43;96110.66;5072130;28;20432;-69
2021/07/30 11:06:26;;;;;;;5.90;5.30;;;;;;;31.34;33.36;96105.59;5073068;28;20461;-68
2021/07/30 11:11:42;;;;;;;5.40;4.90;;;;;;;31.47;33.82;96111.19;5073700;28;20408;-68
2021/07/30 11:14:14;;;;;;;5.60;5.10;;;;;;;31.95;32.63;96107.63;5073089;28;20801;-69
2021/07/30 11:16:40;;;;;;;5.90;5.30;;;;;;;31.95;32.78;96109.53;5072973;28;20424;-68
2021/07/30 11:19:06;;;;;;;5.33;4.80;;;;;;;32.69;31.62;96101.53;5056257;28;20429;-70
2021/07/30 11:21:32;;;;;;;5.20;4.70;;;;;;;31.33;32.97;96109.41;5071221;28;20456;-69
2021/07/30 11:23:58;;;;;;;6.30;5.17;;;;;;;31.78;32.58;96113.03;5073890;28;20429;-69
2021/07/30 11:26:24;;;;;;;7.10;5.40;;;;;;;31.66;32.83;96100.88;5058949;28;20691;-68
2021/07/30 11:28:55;;;;;;;6.13;5.23;;;;;;;31.64;32.46;96094.97;5074344;28;20425;-69
2021/07/30 11:31:21;;;;;;;8.63;5.20;;;;;;;31.68;33.22;96097.88;5072973;28;20175;-69
2021/07/30 11:33:46;;;;;;;4.80;4.30;;;;;;;31.49;33.46;96090.03;5073929;28;20444;-69
2021/07/30 11:36:12;;;;;;;5.53;4.60;;;;;;;31.35;33.95;96090.94;5055839;28;20205;-67
2021/07/30 11:38:55;;;;;;;4.97;4.57;;;;;;;30.99;34.69;96097.34;5064771;28;20190;-69